createdAt,value
2019-05-29T00:02:07.861Z,10.20
2019-05-29T00:04:36.525Z,10.20
2019-05-29T00:07:06.020Z,10.20
2019-05-29T00:09:34.713Z,10.20
2019-05-29T00:12:03.221Z,10.20
2019-05-29T00:14:31.739Z,10.20
2019-05-29T00:17:00.473Z,10.20
2019-05-29T00:19:28.942Z,10.20
2019-05-29T00:21:57.472Z,10.20
2019-05-29T00:24:25.898Z,10.10
2019-05-29T00:26:54.391Z,10.10
2019-05-29T00:29:23.077Z,10.10
2019-05-29T00:31:52.241Z,10.10
2019-05-29T00:34:21.579Z,10.10
2019-05-29T00:36:50.085Z,10.00
2019-05-29T00:39:18.528Z,10.00
2019-05-29T00:41:46.947Z,9.90
2019-05-29T00:44:15.494Z,9.90
2019-05-29T00:46:43.994Z,9.80
2019-05-29T00:49:12.486Z,9.80
2019-05-29T00:51:41.065Z,9.80
2019-05-29T00:54:10.320Z,9.90
2019-05-29T00:56:38.911Z,9.80
2019-05-29T00:59:07.312Z,9.80
2019-05-29T01:01:35.774Z,9.80
2019-05-29T01:04:04.264Z,9.80
2019-05-29T01:06:32.788Z,9.80
2019-05-29T01:09:01.224Z,9.90
2019-05-29T01:11:29.656Z,9.90
2019-05-29T01:13:58.146Z,10.00
2019-05-29T01:16:26.562Z,10.00
2019-05-29T01:18:56.779Z,10.00
2019-05-29T01:21:25.307Z,10.00
2019-05-29T01:23:53.782Z,10.10
2019-05-29T01:26:22.828Z,10.10
2019-05-29T01:28:51.341Z,10.20
2019-05-29T01:31:19.792Z,10.20
2019-05-29T01:33:48.248Z,10.30
2019-05-29T01:36:17.934Z,10.30
2019-05-29T01:38:46.504Z,10.30
2019-05-29T01:41:15.136Z,10.30
2019-05-29T01:43:43.558Z,10.40
2019-05-29T01:46:12.032Z,10.40
2019-05-29T01:48:40.497Z,10.40
2019-05-29T01:51:08.975Z,10.50
2019-05-29T01:53:37.487Z,10.50
2019-05-29T01:56:05.935Z,10.50
2019-05-29T01:58:34.335Z,10.50
2019-05-29T02:01:02.863Z,10.50
2019-05-29T02:03:31.329Z,10.70
2019-05-29T02:05:59.764Z,10.50
2019-05-29T02:08:28.348Z,10.50
2019-05-29T02:10:56.834Z,10.70
2019-05-29T02:13:25.244Z,10.70
2019-05-29T02:15:54.032Z,10.70
2019-05-29T02:18:23.006Z,10.70
2019-05-29T02:20:51.474Z,10.80
2019-05-29T02:23:19.999Z,10.80
2019-05-29T02:25:48.535Z,10.80
2019-05-29T02:28:16.972Z,10.90
2019-05-29T02:30:45.409Z,10.90
2019-05-29T02:33:13.855Z,10.90
2019-05-29T02:35:42.355Z,11.00
2019-05-29T02:38:10.813Z,11.00
2019-05-29T02:40:39.347Z,11.00
2019-05-29T02:43:07.852Z,11.00
2019-05-29T02:45:52.695Z,11.20
2019-05-29T02:48:06.581Z,11.30
2019-05-29T02:50:35.026Z,11.30
2019-05-29T02:53:03.515Z,11.30
2019-05-29T02:55:32.123Z,11.30
2019-05-29T02:58:00.789Z,11.20
2019-05-29T03:00:53.835Z,11.20
2019-05-29T03:03:24.004Z,11.10
2019-05-29T03:05:54.790Z,11.10
2019-05-29T03:08:24.616Z,11.00
2019-05-29T03:10:53.776Z,11.00
2019-05-29T03:13:23.088Z,10.80
2019-05-29T03:16:08.641Z,10.80
2019-05-29T03:18:23.783Z,10.70
2019-05-29T03:20:52.170Z,10.80
2019-05-29T03:23:20.778Z,10.80
2019-05-29T03:25:49.235Z,10.80
2019-05-29T03:28:17.666Z,10.80
2019-05-29T03:30:46.834Z,10.80
2019-05-29T03:33:15.454Z,10.80
2019-05-29T03:35:47.837Z,10.80
2019-05-29T03:38:14.096Z,10.70
2019-05-29T03:40:42.528Z,10.70
2019-05-29T03:43:10.983Z,10.80
2019-05-29T03:45:39.408Z,10.80
2019-05-29T03:48:07.882Z,10.80
2019-05-29T03:50:36.327Z,10.80
2019-05-29T03:53:04.788Z,10.80
2019-05-29T03:55:33.706Z,10.90
2019-05-29T03:58:02.878Z,10.90
2019-05-29T04:00:40.149Z,11.00
2019-05-29T04:03:01.703Z,10.90
2019-05-29T04:05:30.932Z,11.00
2019-05-29T04:07:59.493Z,10.90
2019-05-29T04:10:29.557Z,10.90
2019-05-29T04:13:01.338Z,11.00
2019-05-29T04:15:33.567Z,11.10
2019-05-29T04:18:05.080Z,11.20
2019-05-29T04:20:38.794Z,11.20
2019-05-29T04:23:07.820Z,11.20
2019-05-29T04:25:41.755Z,11.20
2019-05-29T04:28:08.029Z,11.30
2019-05-29T04:30:38.227Z,11.30
2019-05-29T04:33:06.911Z,11.30
2019-05-29T04:35:36.831Z,11.30
2019-05-29T04:38:05.636Z,11.30
2019-05-29T04:40:34.988Z,11.40
2019-05-29T04:43:04.111Z,11.40
2019-05-29T04:45:33.241Z,11.40
2019-05-29T04:48:02.487Z,11.40
2019-05-29T04:50:31.796Z,11.40
2019-05-29T04:53:01.082Z,11.40
2019-05-29T04:55:30.609Z,11.40
2019-05-29T04:57:59.294Z,11.40
2019-05-29T05:00:28.996Z,11.50
2019-05-29T05:02:57.602Z,11.50
2019-05-29T05:05:26.300Z,11.40
2019-05-29T05:07:54.753Z,11.40
2019-05-29T05:10:38.012Z,11.40
2019-05-29T05:13:07.266Z,11.40
2019-05-29T05:15:37.869Z,11.50
2019-05-29T05:18:07.228Z,11.50
2019-05-29T05:20:36.233Z,11.60
2019-05-29T05:23:05.035Z,11.70
2019-05-29T05:25:34.150Z,11.70
2019-05-29T05:28:03.387Z,11.70
2019-05-29T05:30:32.353Z,11.80
2019-05-29T05:33:01.078Z,11.80
2019-05-29T05:35:30.726Z,11.80
2019-05-29T05:37:59.354Z,11.70
2019-05-29T05:40:27.930Z,11.80
2019-05-29T05:42:56.446Z,11.90
2019-05-29T05:45:24.991Z,12.30
2019-05-29T05:47:57.399Z,12.50
2019-05-29T05:50:23.845Z,12.50
2019-05-29T05:52:52.261Z,12.10
2019-05-29T05:55:20.870Z,12.20
2019-05-29T05:57:49.342Z,12.00
2019-05-29T06:00:32.153Z,12.00
2019-05-29T06:03:00.813Z,12.10
2019-05-29T06:05:29.311Z,12.10
2019-05-29T06:07:57.784Z,12.00
2019-05-29T06:10:26.311Z,12.10
2019-05-29T06:12:54.859Z,12.20
2019-05-29T06:15:23.327Z,12.20
2019-05-29T06:18:10.454Z,12.10
2019-05-29T06:20:21.994Z,12.20
2019-05-29T06:22:50.650Z,12.20
2019-05-29T06:25:19.356Z,12.20
2019-05-29T06:27:47.827Z,12.10
2019-05-29T06:30:16.782Z,12.30
2019-05-29T06:32:45.285Z,12.20
2019-05-29T06:35:13.962Z,12.40
2019-05-29T06:37:43.638Z,12.50
2019-05-29T06:40:12.487Z,12.70
2019-05-29T06:42:41.940Z,13.00
2019-05-29T06:45:12.397Z,13.20
2019-05-29T06:47:41.321Z,13.10
2019-05-29T06:50:11.190Z,13.40
2019-05-29T06:52:39.657Z,13.70
2019-05-29T06:55:08.280Z,13.90
2019-05-29T06:57:38.109Z,14.00
2019-05-29T07:00:07.425Z,14.10
2019-05-29T07:02:36.409Z,14.00
2019-05-29T07:05:06.395Z,14.20
2019-05-29T07:07:36.034Z,14.70
2019-05-29T07:10:06.568Z,14.90
2019-05-29T07:12:36.298Z,14.60
2019-05-29T07:15:07.967Z,14.60
2019-05-29T07:17:36.454Z,14.80
2019-05-29T07:20:06.776Z,14.80
2019-05-29T07:22:36.795Z,14.40
2019-05-29T07:25:06.562Z,14.00
2019-05-29T07:27:35.100Z,13.90
2019-05-29T07:30:03.835Z,13.70
2019-05-29T07:32:32.318Z,13.90
2019-05-29T07:35:03.750Z,14.50
2019-05-29T07:37:31.008Z,14.60
2019-05-29T07:39:59.546Z,14.50
2019-05-29T07:42:28.215Z,14.30
2019-05-29T07:44:56.840Z,14.60
2019-05-29T07:47:25.318Z,14.90
2019-05-29T07:49:53.806Z,15.40
2019-05-29T07:52:22.369Z,14.70
2019-05-29T07:54:50.875Z,14.70
2019-05-29T07:57:19.444Z,14.80
2019-05-29T07:59:48.865Z,14.80
2019-05-29T08:02:17.362Z,15.00
2019-05-29T08:04:47.179Z,15.20
2019-05-29T08:07:15.864Z,15.10
2019-05-29T08:09:45.723Z,15.10
2019-05-29T08:12:14.323Z,14.80
2019-05-29T08:14:43.726Z,15.20
2019-05-29T08:17:12.287Z,15.30
2019-05-29T08:19:57.113Z,15.70
2019-05-29T08:22:10.978Z,15.50
2019-05-29T08:24:40.631Z,15.40
2019-05-29T08:27:09.122Z,15.70
2019-05-29T08:29:37.591Z,15.70
2019-05-29T08:32:06.127Z,15.40
2019-05-29T08:34:34.751Z,15.40
2019-05-29T08:37:07.185Z,15.70
2019-05-29T08:39:36.865Z,15.30
2019-05-29T08:42:21.970Z,15.20
2019-05-29T08:44:34.264Z,15.70
2019-05-29T08:47:10.107Z,16.10
2019-05-29T08:49:33.194Z,15.80
2019-05-29T08:52:11.296Z,16.20
2019-05-29T08:54:31.985Z,16.30
2019-05-29T08:57:00.569Z,16.00
2019-05-29T08:59:29.128Z,15.90
2019-05-29T09:01:57.569Z,15.90
2019-05-29T09:04:29.289Z,15.90
2019-05-29T09:06:57.871Z,16.20
2019-05-29T09:09:26.357Z,16.90
2019-05-29T09:11:54.864Z,16.80
2019-05-29T09:14:27.651Z,16.50
2019-05-29T09:16:57.477Z,16.50
2019-05-29T09:19:26.142Z,16.60
2019-05-29T09:21:55.058Z,17.10
2019-05-29T09:24:25.156Z,17.30
2019-05-29T09:26:56.628Z,17.20
2019-05-29T09:29:25.199Z,16.80
2019-05-29T09:31:56.650Z,16.80
2019-05-29T09:34:25.877Z,16.20
2019-05-29T09:36:55.843Z,16.70
2019-05-29T09:39:24.869Z,16.50
2019-05-29T09:41:53.362Z,16.40
2019-05-29T09:44:37.342Z,16.50
2019-05-29T09:46:52.096Z,16.80
2019-05-29T09:49:22.270Z,16.70
2019-05-29T09:51:54.125Z,17.40
2019-05-29T09:54:25.635Z,17.40
2019-05-29T09:56:56.817Z,17.60
2019-05-29T09:59:26.011Z,18.00
2019-05-29T10:01:56.282Z,17.70
2019-05-29T10:04:24.821Z,17.20
2019-05-29T10:06:54.910Z,17.40
2019-05-29T10:09:23.690Z,17.00
2019-05-29T10:11:54.657Z,17.40
2019-05-29T10:14:22.589Z,17.40
2019-05-29T10:16:51.181Z,18.40
2019-05-29T10:19:19.725Z,18.50
2019-05-29T10:21:48.307Z,18.60
2019-05-29T10:24:16.876Z,18.30
2019-05-29T10:26:46.048Z,18.40
2019-05-29T10:29:14.527Z,18.90
2019-05-29T10:31:46.847Z,18.60
2019-05-29T10:34:13.339Z,17.90
2019-05-29T10:36:42.323Z,17.70
2019-05-29T10:39:12.893Z,17.40
2019-05-29T10:41:41.100Z,17.00
2019-05-29T10:44:12.621Z,17.10
2019-05-29T10:46:39.750Z,16.80
2019-05-29T10:49:08.222Z,16.60
2019-05-29T10:51:36.744Z,16.70
2019-05-29T10:54:05.858Z,16.90
2019-05-29T10:56:34.352Z,17.10
2019-05-29T10:59:02.899Z,17.50
2019-05-29T11:01:31.575Z,17.30
2019-05-29T11:04:00.134Z,16.90
2019-05-29T11:06:29.078Z,17.20
2019-05-29T11:08:57.802Z,17.30
2019-05-29T11:11:26.360Z,17.20
2019-05-29T11:13:57.850Z,16.80
2019-05-29T11:16:26.387Z,16.80
2019-05-29T11:18:55.302Z,16.90
2019-05-29T11:21:23.844Z,17.10
2019-05-29T11:23:52.333Z,17.20
2019-05-29T11:26:20.977Z,17.30
2019-05-29T11:28:50.341Z,17.40
2019-05-29T11:31:18.910Z,17.60
2019-05-29T11:33:48.710Z,17.70
2019-05-29T11:36:17.343Z,17.80
2019-05-29T11:38:45.891Z,17.70
2019-05-29T11:41:25.662Z,18.00
2019-05-29T11:43:44.811Z,18.60
2019-05-29T11:46:13.713Z,18.90
2019-05-29T11:48:42.249Z,17.90
2019-05-29T11:51:12.917Z,17.70
2019-05-29T11:53:43.047Z,17.10
2019-05-29T11:56:13.204Z,17.00
2019-05-29T11:58:43.325Z,16.90
2019-05-29T12:01:13.547Z,17.20
2019-05-29T12:04:05.957Z,17.20
2019-05-29T12:06:14.041Z,17.20
2019-05-29T12:08:42.734Z,17.30
2019-05-29T12:11:11.223Z,17.40
2019-05-29T12:13:42.752Z,17.50
2019-05-29T12:16:11.189Z,17.60
2019-05-29T12:18:39.857Z,18.10
2019-05-29T12:21:09.859Z,18.10
2019-05-29T12:23:39.551Z,18.50
2019-05-29T12:26:21.703Z,18.80
2019-05-29T12:28:41.737Z,18.00
2019-05-29T12:31:10.471Z,18.10
2019-05-29T12:33:39.200Z,18.60
2019-05-29T12:36:07.897Z,18.40
2019-05-29T12:38:38.175Z,18.40
2019-05-29T12:41:08.352Z,18.80
2019-05-29T12:43:39.908Z,18.90
2019-05-29T12:46:08.484Z,18.20
2019-05-29T12:48:38.732Z,18.40
2019-05-29T12:51:10.082Z,18.50
2019-05-29T12:53:40.395Z,18.60
2019-05-29T12:56:08.875Z,18.90
2019-05-29T12:58:37.583Z,19.30
2019-05-29T13:01:06.188Z,19.20
2019-05-29T13:03:35.332Z,18.90
2019-05-29T13:06:04.453Z,18.90
2019-05-29T13:08:35.875Z,19.10
2019-05-29T13:11:05.097Z,19.00
2019-05-29T13:13:35.311Z,18.80
2019-05-29T13:16:05.242Z,18.40
2019-05-29T13:18:33.903Z,18.80
2019-05-29T13:21:03.103Z,18.90
2019-05-29T13:23:44.259Z,19.00
2019-05-29T13:26:01.862Z,18.70
2019-05-29T13:28:30.374Z,18.40
2019-05-29T13:30:59.760Z,18.50
2019-05-29T13:33:28.402Z,18.80
2019-05-29T13:35:58.060Z,18.50
2019-05-29T13:38:26.608Z,18.40
2019-05-29T13:40:56.249Z,18.20
2019-05-29T13:43:24.818Z,18.50
2019-05-29T13:45:53.286Z,19.10
2019-05-29T13:48:23.520Z,19.20
2019-05-29T13:50:52.031Z,19.20
2019-05-29T13:53:20.567Z,19.20
2019-05-29T13:55:49.107Z,19.40
2019-05-29T13:58:17.568Z,19.80
2019-05-29T14:00:45.994Z,19.80
2019-05-29T14:03:14.445Z,19.90
2019-05-29T14:05:42.875Z,19.40
2019-05-29T14:08:11.304Z,19.60
2019-05-29T14:10:39.926Z,19.50
2019-05-29T14:13:09.336Z,19.70
2019-05-29T14:15:37.915Z,20.00
2019-05-29T14:18:07.079Z,19.70
2019-05-29T14:20:35.651Z,19.40
2019-05-29T14:23:05.242Z,19.80
2019-05-29T14:25:33.742Z,19.70
2019-05-29T14:28:02.649Z,19.60
2019-05-29T14:30:33.071Z,19.20
2019-05-29T14:33:04.420Z,19.10
2019-05-29T14:35:33.173Z,18.80
2019-05-29T14:38:01.662Z,18.60
2019-05-29T14:40:30.164Z,18.60
2019-05-29T14:42:58.678Z,18.50
2019-05-29T14:45:27.102Z,18.50
2019-05-29T14:47:55.585Z,18.60
2019-05-29T14:50:23.981Z,18.50
2019-05-29T14:52:52.435Z,18.60
2019-05-29T14:55:20.907Z,18.60
2019-05-29T14:57:49.435Z,18.70
2019-05-29T15:00:24.945Z,18.20
2019-05-29T15:02:48.751Z,18.60
2019-05-29T15:05:17.546Z,18.50
2019-05-29T15:07:46.063Z,18.50
2019-05-29T15:10:27.441Z,18.50
2019-05-29T15:12:46.437Z,18.80
2019-05-29T15:15:16.423Z,19.00
2019-05-29T15:17:45.351Z,19.10
2019-05-29T15:20:16.518Z,19.40
2019-05-29T15:22:44.438Z,19.40
2019-05-29T15:25:23.688Z,19.00
2019-05-29T15:27:44.957Z,18.70
2019-05-29T15:30:19.707Z,18.40
2019-05-29T15:32:43.773Z,18.40
2019-05-29T15:35:16.300Z,18.20
2019-05-29T15:37:42.823Z,18.10
2019-05-29T15:40:12.893Z,17.90
2019-05-29T15:42:41.439Z,18.00
2019-05-29T15:45:12.308Z,17.90
2019-05-29T15:47:40.912Z,17.60
2019-05-29T15:50:11.674Z,17.70
2019-05-29T15:52:40.728Z,17.90
2019-05-29T15:55:27.031Z,18.20
2019-05-29T15:57:41.015Z,18.00
2019-05-29T16:00:13.414Z,18.10
2019-05-29T16:02:42.139Z,17.80
2019-05-29T16:05:13.153Z,17.80
2019-05-29T16:07:41.770Z,17.70
2019-05-29T16:10:14.458Z,17.80
2019-05-29T16:12:42.133Z,17.80
2019-05-29T16:15:11.462Z,17.80
2019-05-29T16:17:40.406Z,17.80
2019-05-29T16:20:10.319Z,17.70
2019-05-29T16:22:39.427Z,17.40
2019-05-29T16:25:08.637Z,17.40
2019-05-29T16:27:37.125Z,17.50
2019-05-29T16:30:08.659Z,17.70
2019-05-29T16:32:37.129Z,17.90
2019-05-29T16:35:09.091Z,17.80
2019-05-29T16:37:37.599Z,17.80
2019-05-29T16:40:14.388Z,18.10
2019-05-29T16:42:43.178Z,18.30
2019-05-29T16:45:12.364Z,18.20
2019-05-29T16:47:40.929Z,18.30
2019-05-29T16:50:10.053Z,18.10
2019-05-29T16:52:38.649Z,18.10
2019-05-29T16:55:07.731Z,18.20
2019-05-29T16:57:36.278Z,17.80
2019-05-29T17:00:07.792Z,17.90
2019-05-29T17:02:36.273Z,17.80
2019-05-29T17:05:06.774Z,17.70
2019-05-29T17:07:35.236Z,17.70
2019-05-29T17:10:08.728Z,17.70
2019-05-29T17:12:37.242Z,17.70
2019-05-29T17:15:15.074Z,17.60
2019-05-29T17:17:43.973Z,17.60
2019-05-29T17:20:14.726Z,17.40
2019-05-29T17:22:43.268Z,17.40
2019-05-29T17:25:11.814Z,17.30
2019-05-29T17:27:40.241Z,17.40
2019-05-29T17:30:09.312Z,17.40
2019-05-29T17:32:37.823Z,17.50
2019-05-29T17:35:08.323Z,17.50
2019-05-29T17:37:37.456Z,17.50
2019-05-29T17:40:07.363Z,17.50
2019-05-29T17:42:35.813Z,17.40
2019-05-29T17:45:06.602Z,17.40
2019-05-29T17:47:35.097Z,17.40
2019-05-29T17:50:05.760Z,17.50
2019-05-29T17:52:34.399Z,17.60
2019-05-29T17:55:03.040Z,17.60
2019-05-29T17:57:31.519Z,17.80
2019-05-29T17:59:59.977Z,18.00
2019-05-29T18:02:28.538Z,18.00
2019-05-29T18:04:57.007Z,18.00
2019-05-29T18:07:26.632Z,18.10
2019-05-29T18:09:55.359Z,18.20
2019-05-29T18:12:25.020Z,17.90
2019-05-29T18:14:53.634Z,17.90
2019-05-29T18:17:23.483Z,17.90
2019-05-29T18:19:52.010Z,17.70
2019-05-29T18:22:21.525Z,17.50
2019-05-29T18:24:50.135Z,17.40
2019-05-29T18:27:19.749Z,17.20
2019-05-29T18:29:48.374Z,17.10
2019-05-29T18:32:16.846Z,17.00
2019-05-29T18:34:45.499Z,16.90
2019-05-29T18:37:14.152Z,16.70
2019-05-29T18:39:42.667Z,16.60
2019-05-29T18:42:11.121Z,16.40
2019-05-29T18:44:39.634Z,16.30
2019-05-29T18:47:08.176Z,16.10
2019-05-29T18:49:36.759Z,15.90
2019-05-29T18:52:05.372Z,15.70
2019-05-29T18:54:33.958Z,15.60
2019-05-29T18:57:15.049Z,15.40
2019-05-29T18:59:32.879Z,15.30
2019-05-29T19:02:01.381Z,15.10
2019-05-29T19:04:30.008Z,15.00
2019-05-29T19:07:05.531Z,14.90
2019-05-29T19:09:34.301Z,14.70
2019-05-29T19:12:02.737Z,14.60
2019-05-29T19:14:32.532Z,14.60
2019-05-29T19:17:01.275Z,14.50
2019-05-29T19:19:30.300Z,14.40
2019-05-29T19:21:58.837Z,14.50
2019-05-29T19:24:28.517Z,14.50
2019-05-29T19:26:57.243Z,14.50
2019-05-29T19:29:26.915Z,14.50
2019-05-29T19:31:55.553Z,14.40
2019-05-29T19:34:25.176Z,14.40
2019-05-29T19:36:53.901Z,14.30
2019-05-29T19:39:23.510Z,14.30
2019-05-29T19:41:52.145Z,14.30
2019-05-29T19:44:20.659Z,14.20
2019-05-29T19:46:54.006Z,14.00
2019-05-29T19:49:19.535Z,13.90
2019-05-29T19:51:48.136Z,13.80
2019-05-29T19:54:16.669Z,13.60
2019-05-29T19:56:45.200Z,13.50
2019-05-29T19:59:13.644Z,13.40
2019-05-29T20:01:42.332Z,13.40
2019-05-29T20:04:10.905Z,13.30
2019-05-29T20:06:39.601Z,13.40
2019-05-29T20:09:08.397Z,13.40
2019-05-29T20:11:37.890Z,13.50
2019-05-29T20:14:07.657Z,13.50
2019-05-29T20:16:36.345Z,13.60
2019-05-29T20:19:05.061Z,13.80
2019-05-29T20:21:34.768Z,13.80
2019-05-29T20:24:03.361Z,13.80
2019-05-29T20:26:32.956Z,13.70
2019-05-29T20:29:01.675Z,13.60
2019-05-29T20:31:30.447Z,13.50
2019-05-29T20:33:59.054Z,13.40
2019-05-29T20:36:27.499Z,13.30
2019-05-29T20:38:56.107Z,13.20
2019-05-29T20:41:24.670Z,13.10
2019-05-29T20:43:53.095Z,13.00
2019-05-29T20:46:21.553Z,12.80
2019-05-29T20:48:50.120Z,12.70
2019-05-29T20:51:18.717Z,12.60
2019-05-29T20:53:47.142Z,12.50
2019-05-29T20:56:15.711Z,12.40
2019-05-29T20:58:44.241Z,12.30
2019-05-29T21:01:12.728Z,12.30
2019-05-29T21:03:42.493Z,12.10
2019-05-29T21:06:11.150Z,12.10
2019-05-29T21:08:40.891Z,12.00
2019-05-29T21:11:09.610Z,12.00
2019-05-29T21:13:39.385Z,11.90
2019-05-29T21:16:08.162Z,11.80
2019-05-29T21:18:37.882Z,11.80
2019-05-29T21:21:06.378Z,11.80
2019-05-29T21:23:35.226Z,11.70
2019-05-29T21:26:05.185Z,11.70
2019-05-29T21:28:40.804Z,11.60
2019-05-29T21:31:07.818Z,11.50
2019-05-29T21:33:37.689Z,11.40
2019-05-29T21:36:06.576Z,11.40
2019-05-29T21:38:36.101Z,11.30
2019-05-29T21:41:04.742Z,11.30
2019-05-29T21:43:33.215Z,11.20
2019-05-29T21:46:01.688Z,11.20
2019-05-29T21:48:30.305Z,11.20
2019-05-29T21:50:58.744Z,11.10
2019-05-29T21:53:27.248Z,11.10
2019-05-29T21:55:55.751Z,11.10
2019-05-29T21:58:24.202Z,11.00
2019-05-29T22:00:53.027Z,11.00
2019-05-29T22:03:21.535Z,11.00
2019-05-29T22:05:50.115Z,10.90
2019-05-29T22:08:18.943Z,11.00
2019-05-29T22:10:47.457Z,11.00
2019-05-29T22:13:16.228Z,11.00
2019-05-29T22:15:44.799Z,11.00
2019-05-29T22:18:13.267Z,11.00
2019-05-29T22:20:42.113Z,11.00
2019-05-29T22:23:10.838Z,11.00
2019-05-29T22:25:39.351Z,11.10
2019-05-29T22:28:07.871Z,11.10
2019-05-29T22:30:36.547Z,11.10
2019-05-29T22:33:05.112Z,11.00
2019-05-29T22:35:33.704Z,11.00
2019-05-29T22:38:02.149Z,11.10
2019-05-29T22:40:30.586Z,11.10
2019-05-29T22:42:59.854Z,11.10
2019-05-29T22:45:28.309Z,11.10
2019-05-29T22:47:57.800Z,11.10
2019-05-29T22:50:26.436Z,11.10
2019-05-29T22:52:55.873Z,11.10
2019-05-29T22:55:24.402Z,11.10
2019-05-29T22:57:53.805Z,11.00
2019-05-29T23:00:22.687Z,11.00
2019-05-29T23:02:51.916Z,11.00
2019-05-29T23:05:20.571Z,10.90
2019-05-29T23:07:48.999Z,10.90
2019-05-29T23:10:17.997Z,10.90
2019-05-29T23:12:46.591Z,10.90
2019-05-29T23:15:15.375Z,10.80
2019-05-29T23:17:43.864Z,10.80
2019-05-29T23:20:12.810Z,10.90
2019-05-29T23:22:41.267Z,10.80
2019-05-29T23:25:09.793Z,10.80
2019-05-29T23:27:38.297Z,10.70
2019-05-29T23:30:09.956Z,10.70
2019-05-29T23:32:38.489Z,10.70
2019-05-29T23:35:08.327Z,10.60
2019-05-29T23:37:36.874Z,10.60
2019-05-29T23:40:08.055Z,10.60
2019-05-29T23:42:36.657Z,10.60
2019-05-29T23:45:06.983Z,10.50
2019-05-29T23:47:35.552Z,10.50
2019-05-29T23:50:05.955Z,10.50
2019-05-29T23:52:34.503Z,10.40
2019-05-29T23:55:04.084Z,10.40
2019-05-29T23:57:32.857Z,10.40
